Aviation Digital Data Service (ADDS)

Output produced by METARs form (0019 UTC 23 February 2017)
found at http://aviationweather.gov/adds/metars/
 
KMBS 222358Z 2300/2324 19009KT P6SM SCT028 
     FM230200 20008KT 4SM BR BKN028 
     FM230700 20010KT 2SM BR OVC015 
     TEMPO 2308/2311 1/2SM -SHRA FG OVC008 
     FM231200 30010KT P6SM BKN035 
     FM231600 31007KT P6SM SCT040 BKN150 
     FM232100 03009KT 6SM HZ SCT035 BKN100